NWS Home NWS Lubbock West Texas Mesonet                      Daily Summary For 02/28/2021

Latest   N   C   S   Daily Sum   3hrΔ   24hrΔ   Soil Data 
Site Map   24hr Precip   72hr Precip   Google Plot


Station Time of Last Max Temp Min Temp Max/Min Dew Pt. Max/Min RH 10m Avg Wind 2m Avg Wind Peak Gust @ 33ft (mph) Potential Evapotranspiration
mm/day or in/day
Rain Sum Solar Rad
MJ/m^2
% Clear Day Red Flag
Abernathy 5ENE 11:59 PM 79 36 57 /28 68 / 47 14.9  (W) 11.5 30.7 mph 45° @ 1118 PM 3 or 0.12 0.00 20 147.1 0
Adrian 6WSW 11:59 PM 79 36 57 /28 68 / 47 16.4  (NE) 12.9 34 mph 42° @ 0941 AM 2.5 or 0.1 0.00 21.8 167.2 0
Aiken 3WSW 11:59 PM 79 36 57 /28 68 / 47 15.9  (W) 12.3 33.4 mph 3° @ 0234 AM 3 or 0.12 0.00 20.9 155.6 1
Amarillo 15NNW 11:59 PM 79 36 57 /28 68 / 47 13.3  (N) 9.8 34.3 mph 22° @ 1208 AM 2.3 or 0.09 0.00 20.5 159.3 0
Amarillo 7SSE 11:59 PM 79 36 57 /28 68 / 47 16.2  (N) 12 34.8 mph 11° @ 1258 AM 2.5 or 0.1 0.00 20 153.6 0
Amarillo 9NNE 11:59 PM 79 36 57 /28 68 / 47 12.1  (N) 9.2 34.3 mph 13° @ 1211 AM 2 or 0.08 0.00 20.5 159.4 0
Amherst 1NE 11:55 PM 79 36 57 /28 68 / 47 15.1  (SW) 11.2 32.1 mph 28° @ 0945 AM 2.8 or 0.11 0.00 4.1 152.9 0
Andrews 2E 11:59 PM 79 36 57 /28 68 / 47 12.4  (SW) 7.9 30.7 mph 67° @ 1131 PM 3 or 0.12 0.00 17.4 121.7 0
Anton 6SSW 11:55 PM 79 36 57 /28 68 / 47 16.2  (SW) 13 29.6 mph 41° @ 1105 PM 3.3 or 0.13 0.00 20 146.8 0
Aspermont 3NE 11:55 PM 79 36 57 /28 68 / 47 13.6  (S) 9.9 29.8 mph 345° @ 0445 AM 3.3 or 0.13 0.00 2.6 93.2 0
Big Bend NP - Castolon 11:59 PM 79 36 57 /28 68 / 47 9  (W) 6.9 32.1 mph 262° @ 1117 PM 4.3 or 0.17 0.00 12.3 78.7 5
Big Bend NP - Persimmon Gap 11:59 PM 79 36 57 /28 68 / 47 10.7  (NW) 8.3 28.6 mph 205° @ 1234 PM 4.3 or 0.17 0.00 13.8 89.1 2
Big Lake 1WNW 11:59 PM 79 36 57 /28 68 / 47 10  (S) 7.9 33.9 mph 56° @ 1116 PM 2.3 or 0.09 0.00 13.4 90.6 0
Bootleg 11WNW 11:59 PM 79 36 57 /28 68 / 47 14.2  (W) 9.9 31.8 mph 17° @ 1057 AM 2.3 or 0.09 0.00 18.8 142.1 0
Borger 7E 11:59 PM 79 36 57 /28 68 / 47 13.4  (N) 9.8 34 mph 4° @ 1208 AM 2.3 or 0.09 0.00 22.7 178.5 0
Boys Ranch 1WSW 11:59 PM 79 36 57 /28 68 / 47 9.5  (NE) 7.7 30.2 mph 29° @ 0923 AM 1.8 or 0.07 0.00 21.4 167.3 0
Brownfield 2S 11:59 PM 79 36 57 /28 68 / 47 15.8  (SW) 12.5 39.5 mph 42° @ 1117 PM 3.6 or 0.14 0.00 19.4 139.1 0
Canadian 6E 11:59 PM 79 36 57 /28 68 / 47 15.1  (N) 11 38.7 mph 358° @ 1219 AM 2.5 or 0.1 0.00 20.9 166.9 0
Caprock Canyons State Park 11:59 PM 79 36 57 /28 68 / 47 12.9  (W) 8.6 33.9 mph 20° @ 0228 AM 3.3 or 0.13 0.00 20.2 152.7 33
Childress 2NNE 11:55 PM 79 36 57 /28 68 / 47 15.4  (S) 10.8 31.9 mph 348° @ 1000 AM 3.3 or 0.13 0.00 16.8 127.8 0
Clarendon 2WSW 11:55 PM 79 36 57 /28 68 / 47 16.2  (NW) 12 31.7 mph 12° @ 1255 AM 3 or 0.12 0.00 20.4 156.9 0
Claude 12SW 11:59 PM 79 36 57 /28 68 / 47 16.4  (N) 11.9 35.2 mph 36° @ 0146 PM 2.5 or 0.1 0.00 22.2 169.7 0
Clyde 2WNW 11:59 PM 79 36 57 /28 68 / 47 11.8  (S) 8.5 27 mph 40° @ 1148 PM 2.3 or 0.09 0.05 7.1 50.1 0
Colorado City 5NW 11:59 PM 79 36 57 /28 68 / 47 11.8  (S) 8.2 30.5 mph 42° @ 1151 PM 2.8 or 0.11 0.00 16.3 115.8 0
Comanche Springs 11:59 PM 79 36 57 /28 68 / 47 12.4  (SW) 9.7 30.7 mph 3° @ 1244 PM 3 or 0.12 0.00 13.8 103.8 0
Coyanosa 2N 11:59 PM 79 36 57 /28 68 / 47 8.7  (SW) 5.4 31.3 mph 75° @ 1155 PM 3 or 0.12 0.00 16.5 112 0
Crane 1NNW 11:59 PM 79 36 57 /28 68 / 47 10.4  (S) 7.9 31.7 mph 72° @ 0950 PM 3 or 0.12 0.00 15.5 105.9 0
Crowell 1E 11:59 PM 79 36 57 /28 68 / 47 15.7  (SW) 12.2 30.6 mph 332° @ 0320 AM 3.3 or 0.13 0.00 12.7 95.3 0
Dell City 11:59 PM 79 36 57 /28 68 / 47 7.1  (NW) 5 32.4 mph 255° @ 0310 PM 2.5 or 0.1 0.00 21.6 148.6 1
Denver City 7WNW 11:55 PM 79 36 57 /28 68 / 47 14.6  (SW) 10.6 32.7 mph 57° @ 1015 PM 3.3 or 0.13 0.00 21.1 150.1 0
Dimmitt 2NE 11:55 PM 79 36 57 /28 68 / 47 16.5  (SW) 12.7 32.5 mph 18° @ 1200 PM 2.5 or 0.1 0.00 20.7 155.7 0
Doole 3WNW 11:59 PM 79 36 57 /28 68 / 47 9.1  (SW) 7.2 24.9 mph 326° @ 1122 AM 2 or 0.08 0.00 10.4 71.8 0
Dora NM 2SW 11:55 PM 79 36 57 /28 68 / 47 15  (SW) 10.8 27.6 mph 48° @ 0920 AM 2.5 or 0.1 0.00 19.4 141.7 0
Dozier 3W 11:59 PM 79 36 57 /28 68 / 47 15.4  (NW) 10.6 37.3 mph 355° @ 0957 AM 3 or 0.12 0.00 20.1 156.1 0
Earth 9WSW 11:59 PM 79 36 57 /28 68 / 47 15.3  (SW) 12.8 34.6 mph 30° @ 0926 AM 3 or 0.12 0.00 20.8 154.8 0
Endee NM 2SW 11:59 PM 79 36 57 /28 68 / 47 11.3  (NE) 7.6 29.5 mph 34° @ 1251 AM 2 or 0.08 0.00 20.3 155.3 0
Estelline 3SSE 11:59 PM 79 36 57 /28 68 / 47 12.4  (S) 9 29.7 mph 355° @ 0156 AM 2.8 or 0.11 0.00 18.1 137.6 0
Floydada 2NNE 11:55 PM 79 36 57 /28 68 / 47 15  (W) 11 31.9 mph 41° @ 0340 PM 3.3 or 0.13 0.00 18.7 138.2 0
Fluvanna 3WNW 11:55 PM 79 36 57 /28 68 / 47 15  (S) 11.7 31.9 mph 35° @ 1120 PM 3 or 0.12 0.00 12.4 88.5 0
Fort Chadbourne 11:59 PM 79 36 57 /28 68 / 47 8.3  (SE) 4.4 24.3 mph 47° @ 1128 PM 2 or 0.08 0.00 9.9 69.6 0
Fort Lancaster 11:59 PM 79 36 57 /28 68 / 47 6.5  (E) 3.9 35 mph 77° @ 1130 PM 2.5 or 0.1 0.00 13.3 88.8 0
Fort Lewis CO 11:59 PM 79 36 57 /28 68 / 47 5.5  (SE) 3.4 15 mph 143° @ 0335 PM 0.8 or 0.03 0.00 21.7 174.8 0
Fort McKavett 11:59 PM 79 36 57 /28 68 / 47 8.5  (S) 5.4 24.3 mph 34° @ 1016 PM 2.3 or 0.09 0.00 11.2 75.4 0
Friona 2NE 11:55 PM 79 36 57 /28 68 / 47 14.8  (W) 10.6 34.6 mph 23° @ 0145 AM 2.3 or 0.09 0.00 21.4 160.9 0
Fritch 1WNW 11:59 PM 79 36 57 /28 68 / 47 12.1  (NE) 9.5 30.6 mph 9° @ 1148 AM 2 or 0.08 0.00 21 165.5 0
Gail 2ESE 11:59 PM 79 36 57 /28 68 / 47 12.4  (SW) 8.4 30.7 mph 43° @ 1103 PM 2.8 or 0.11 0.00 13.6 96.8 0
Goodlett 3W 11:55 PM 79 36 57 /28 68 / 47 16.2  (S) 12.5 32.8 mph 352° @ 0745 AM 3.3 or 0.13 0.00 16.9 128.2 0
Goodnight 11:59 PM 79 36 57 /28 68 / 47 16  (N) 12.1 34.9 mph 3° @ 0123 AM 2.8 or 0.11 0.00 20 154.1 0
Graham 5SSW 11:59 PM 79 36 57 /28 68 / 47 15.2  (SW) 11.3 38.4 mph 44° @ 1115 PM 3.6 or 0.14 0.00 16.4 118.3 2
Guadalupe Mtns Natl Park 11:59 PM 79 36 57 /28 68 / 47 14.3  (W) 10.6 42.7 mph 298° @ 0324 AM 3.6 or 0.14 0.00 22.2 150.5 106
Guthrie 10WSW 11:59 PM 79 36 57 /28 68 / 47 14.4  (S) 10.3 36.2 mph 9° @ 0910 AM 3.6 or 0.14 0.00 14.2 104.8 0
Hackberry 2SSE 11:59 PM 79 36 57 /28 68 / 47 15.6  (SW) 12 32.3 mph 320° @ 0259 AM 3.6 or 0.14 0.00 14.5 108.6 0
Happy 1E 11:59 PM 79 36 57 /28 68 / 47 16.1  (W) 12.6 33.4 mph 20° @ 0910 AM 2.5 or 0.1 0.00 22.1 167.9 0
Hart 3N 11:55 PM 79 36 57 /28 68 / 47 17.6  (W) 13.4 35.1 mph 15° @ 0220 AM 2.8 or 0.11 0.00 21.3 159.3 0
Haskell 1NW 11:55 PM 79 36 57 /28 68 / 47 15.1  (S) 11.1 32.3 mph 7° @ 1015 AM 2.5 or 0.1 0.00 10.8 79.1 0
Hefner 1SW 11:59 PM 79 36 57 /28 68 / 47 16.1  (S) 11.7 30.2 mph 344° @ 0848 AM 3.3 or 0.13 0.00 11.3 83.6 0
Hereford 2NW 11:55 PM 79 36 57 /28 68 / 47 13  (W) 10.2 31 mph 17° @ 1130 AM 2 or 0.08 0.00 20.4 154.9 0
Hobbs NM 5NW 11:59 PM 79 36 57 /28 68 / 47 10  (SW) 6.1 26.3 mph 57° @ 1151 PM 2.8 or 0.11 0.00 20.8 147.5 0
Jayton 1SSE 11:55 PM 79 36 57 /28 68 / 47 12.7  (S) 9.3 34 mph 11° @ 0855 AM 3 or 0.12 0.00 12.8 93.4 0
Junction 1SSW 11:59 PM 79 36 57 /28 68 / 47 5.7  (SW) 4.6 21.6 mph 27° @ 1009 PM 1.8 or 0.07 0.00 8.2 54.4 0
Kent 9E 11:59 PM 79 36 57 /28 68 / 47 9.9  (W) 7 22.5 mph 109° @ 0713 PM 3.3 or 0.13 0.00 18.7 124.9 0
Knox City 3NW 11:59 PM 79 36 57 /28 68 / 47 13.3  (S) 9.6 30.7 mph 17° @ 1031 AM 3 or 0.12 0.00 13.2 97.4 0
Lake Alan Henry 1NW 11:59 PM 79 36 57 /28 68 / 47 12.5  (SW) 8.9 27.8 mph 35° @ 0909 AM 3 or 0.12 0.00 13.1 94.3 0
Lake McClellan 2NW 11:59 PM 79 36 57 /28 68 / 47 18  (N) 13.5 37.8 mph 359° @ 0106 AM 2.8 or 0.11 0.00 20.7 160.1 0
Lamesa 2SE 11:55 PM 79 36 57 /28 68 / 47 12.3  (S) 8.1 33.6 mph 51° @ 1155 PM 2.8 or 0.11 0.00 16.3 115.5 0
Lesley 2S 11:59 PM 79 36 57 /28 68 / 47 14.7  (W) 10.4 39.5 mph 5° @ 0125 AM 3.3 or 0.13 0.00 21 160.3 1
Levelland 4S 11:59 PM 79 36 57 /28 68 / 47 16  (SW) 13 36.2 mph 347° @ 0320 AM 3.3 or 0.13 0.00 20.2 146.7 0
Lomax 1SSE 11:59 PM 79 36 57 /28 68 / 47 11.9  (S) 9.1 31 mph 54° @ 1047 PM 2.8 or 0.11 0.00 16.2 112.9 0
Lubbock 3WNW TTU 11:55 PM 79 36 57 /28 68 / 47 12.5  (W) 9.3 34.9 mph 315° @ 0310 AM 2.8 or 0.11 0.00 19.2 140.5 0
McAdoo 3NNW 11:59 PM 79 36 57 /28 68 / 47 17.8  (SW) 12.1 35.1 mph 21° @ 0633 AM 3.8 or 0.15 0.00 17.9 131.5 0
McCamey 1SSW 11:59 PM 79 36 57 /28 68 / 47 8.2  (E) 6.9 38.7 mph 68° @ 1005 PM 2.5 or 0.1 0.00 12.2 82.8 0
McLean 1E 11:55 PM 79 36 57 /28 68 / 47 17  (N) 14.5 37.9 mph 357° @ 0115 AM 2.8 or 0.11 0.00 21.3 165.6 0
Memphis 1NE 11:59 PM 79 36 57 /28 68 / 47 17.5  (NW) 14.2 39.5 mph 2° @ 0149 AM 3.6 or 0.14 0.00 19.6 150.4 3
Menard 2NW 11:59 PM 79 36 57 /28 68 / 47 8.6  (S) 6.7 24.6 mph 45° @ 1111 PM 2.5 or 0.1 0.00 10.7 72 0
Mertzon 3NNE 11:59 PM 79 36 57 /28 68 / 47 9.6  (S) 6.7 22.1 mph 183° @ 0213 AM 2 or 0.08 0.00 12.8 87.3 0
Morton 1ENE 11:55 PM 79 36 57 /28 68 / 47 15.8  (SW) 11.3 31.6 mph 38° @ 1155 PM 3.3 or 0.13 0.00 20.5 150.1 0
Muleshoe 2SSW 11:55 PM 79 36 57 /28 68 / 47 13.2  (W) 9.9 29 mph 39° @ 0915 AM 2.5 or 0.1 0.00 22.6 167.8 0
New Home 11:59 PM 79 36 57 /28 68 / 47 13.5  (SW) 9.2 31.5 mph 46° @ 1150 PM 3.3 or 0.13 0.00 18.9 136.6 0
Northfield 1S 11:55 PM 79 36 57 /28 68 / 47 13  (S) 8.9 29.1 mph 27° @ 0205 PM 3 or 0.12 0.00 18.2 137.1 0
O'Donnell 1N 11:55 PM 79 36 57 /28 68 / 47 15.4  (SW) 11.5 35.7 mph 34° @ 1100 PM 3.3 or 0.13 0.00 3 109 0
Odell 4ENE 11:59 PM 79 36 57 /28 68 / 47 15.5  (S) 11.2 31.4 mph 2° @ 0918 AM 3 or 0.12 0.00 11.8 90.2 0
Olton 6S 11:55 PM 79 36 57 /28 68 / 47 16.6  (SW) 12.9 33.4 mph 21° @ 0930 AM 2.8 or 0.11 0.00 20.3 150.7 0
Paducah 10SW 11:55 PM 79 36 57 /28 68 / 47 16.3  (SW) 9.9 35.7 mph 278° @ 0240 AM 3.8 or 0.15 0.00 3.1 114 0
Palo Duro 4E (JA Ranch) 11:59 PM 79 36 57 /28 68 / 47 14.8  (W) 10.1 34.1 mph 4° @ 1242 AM 3.3 or 0.13 0.00 20.3 155.6 2
Palo Duro Canyon SP Floor 11:59 PM 79 36 57 /28 68 / 47 8.3  (N) 4.4 38.4 mph 358° @ 0929 AM 2 or 0.08 0.00 20 153.3 0
Palo Duro Canyon State Park Rim 11:59 PM 79 36 57 /28 68 / 47 13.9  (N) 7.9 31.8 mph 4° @ 0914 AM 2.5 or 0.1 0.00 21.6 165.8 0
Palo Duro Reservoir 1NW 11:59 PM 79 36 57 /28 68 / 47 15.3  (N) 10.5 36 mph 14° @ 1053 AM 2 or 0.08 0.00 20 161.8 0
Pampa 2E 11:55 PM 79 36 57 /28 68 / 47 15.9  (N) 12.6 34.1 mph 349° @ 1225 PM 2.5 or 0.1 0.00 19.5 152.5 0
Panhandle 1SSW 11:59 PM 79 36 57 /28 68 / 47 15.7  (N) 12.9 33.2 mph 2° @ 1252 AM 2.3 or 0.09 0.00 20.9 162.4 0
Plains 3N 11:55 PM 79 36 57 /28 68 / 47 14.5  (SW) 11.8 34 mph 48° @ 1130 PM 3.3 or 0.13 0.00 21.3 153 0
Plainview 1S 11:59 PM 79 36 57 /28 68 / 47 14  (W) 11.1 31.8 mph 12° @ 0923 AM 2.8 or 0.11 0.00 21.4 159 0
Post 1NE 11:59 PM 79 36 57 /28 68 / 47 13.3  (S) 8.9 31.8 mph 37° @ 1118 PM 3.6 or 0.14 0.00 15.8 114.3 0
Ralls 1SE 11:59 PM 79 36 57 /28 68 / 47 16.1  (SW) 12.4 34 mph 33° @ 1146 PM 3.6 or 0.14 0.00 19 139.2 0
Reese Center 11:59 PM 79 36 57 /28 68 / 47 15.1  (W) 9.7 30.7 mph 51° @ 0334 PM 3.3 or 0.13 0.00 19.9 145.1 2
Roaring Springs 3N 11:59 PM 79 36 57 /28 68 / 47 15.3  (S) 10.9 34 mph 328° @ 0228 AM 3.3 or 0.13 0.00 17.7 131.2 0
Romero 11SSW 11:59 PM 79 36 57 /28 68 / 47 14.8  (NE) 10.8 35.4 mph 19° @ 1013 AM 2.3 or 0.09 0.00 19.9 155.1 4
Rotan 5W 11:59 PM 79 36 57 /28 68 / 47 15.2  (S) 11.9 28.7 mph 30° @ 1155 PM 3 or 0.12 0.00 16.7 120 0
San Angelo 7NW 11:55 PM 79 36 57 /28 68 / 47 6.6  (S) 4.4 23.3 mph 50° @ 1110 PM 1.8 or 0.07 0.00 11.7 80.9 0
Seagraves 1SW 11:55 PM 79 36 57 /28 68 / 47 11.7  (SW) 8.5 34.3 mph 50° @ 1150 PM 3 or 0.12 0.00 3.5 125.8 0
Segovia 7SSW 11:59 PM 79 36 57 /28 68 / 47 7.8  (SE) 5.6 21.2 mph 14° @ 1038 PM 1.8 or 0.07 0.00 9.4 62 0
Seminole 2NNE 11:55 PM 79 36 57 /28 68 / 47 13.9  (S) 10.2 31.2 mph 57° @ 1050 PM 3.3 or 0.13 0.00 3.9 138.5 0
Seymour 3NW 11:55 PM 79 36 57 /28 68 / 47 14.5  (S) 11 28.5 mph 312° @ 0535 AM 2.8 or 0.11 0.00 9.5 70.5 0
Sierra Blanca 1SSE 11:59 PM 79 36 57 /28 68 / 47 12.1  (W) 9.1 33.3 mph 305° @ 1102 PM 3.8 or 0.15 0.00 19.6 130.7 63
Silverton 7ESE 11:55 PM 79 36 57 /28 68 / 47 17.4  (W) 13.1 35 mph 0° @ 0210 AM 3 or 0.12 0.00 18.3 137.7 5
Slaton 2NE 11:59 PM 79 36 57 /28 68 / 47 14.5  (W) 11.8 34 mph 30° @ 1130 PM 3.3 or 0.13 0.00 18.9 137.7 0
Smyer 11:59 PM 79 36 57 /28 68 / 47 14.1  (W) 11.2 27.3 mph 348° @ 0308 AM 3 or 0.12 0.00 20.8 151.4 0
Snyder 3E 11:55 PM 79 36 57 /28 68 / 47 13.7  (S) 7 35.2 mph 24° @ 1135 PM 2.8 or 0.11 0.00 12.1 86 0
Snyder 3SSW 11:59 PM 79 36 57 /28 68 / 47 12.9  (S) 8.8 30 mph 23° @ 1131 PM 2.8 or 0.11 0.00 13.2 94.4 0
South Plains 3ENE 11:59 PM 79 36 57 /28 68 / 47 14.1  (SW) 10.9 29.4 mph 4° @ 0918 AM 3 or 0.12 0.00 19.2 143.1 0
Spur 1W 11:55 PM 79 36 57 /28 68 / 47 14  (SW) 11.6 31.2 mph 26° @ 0815 AM 3.3 or 0.13 0.00 15.2 111.7 0
St. Lawrence 5SW 11:59 PM 79 36 57 /28 68 / 47 12.1  (S) 9.1 34 mph 63° @ 1004 PM 2.5 or 0.1 0.00 15.9 109 0
Stamford 5ESE 11:59 PM 79 36 57 /28 68 / 47 14.4  (S) 10.8 32.5 mph 353° @ 0651 AM 2.8 or 0.11 0.00 10.2 73.6 0
Sterling City 4WSW 11:59 PM 79 36 57 /28 68 / 47 9.8  (S) 7.2 26.1 mph 180° @ 1220 AM 2.3 or 0.09 0.00 11.3 78 0
Stinnett 1NNW 11:59 PM 79 36 57 /28 68 / 47 17.8  (N) 13.3 36.6 mph 6° @ 1213 AM 2.5 or 0.1 0.00 21 165.9 0
Stratford 4WNW 11:59 PM 79 36 57 /28 68 / 47 13.4  (N) 8.8 30.8 mph 356° @ 0924 AM 1.8 or 0.07 0.00 20.6 165.4 0
Sundown 8WSW 11:55 PM 79 36 57 /28 68 / 47 14.6  (W) 10.1 33.7 mph 40° @ 1155 PM 3.3 or 0.13 0.00 17.8 128.9 0
Sweetwater 11SW 11:59 PM 79 36 57 /28 68 / 47 14.5  (S) 10.2 31.9 mph 53° @ 1153 PM 3 or 0.12 0.00 14.8 104.4 0
Tahoka 3NNE 11:59 PM 79 36 57 /28 68 / 47 14  (S) 9.7 34.4 mph 40° @ 1123 PM 3.3 or 0.13 0.00 17.7 127.7 0
Tarzan 2WNW 11:59 PM 79 36 57 /28 68 / 47 13.2  (S) 9.4 29.8 mph 55° @ 1152 PM 3 or 0.12 0.00 14.3 100.4 0
Tatum NM 2SW 11:55 PM 79 36 57 /28 68 / 47 15.2  (SW) 10 33.7 mph 70° @ 0845 PM 3.6 or 0.14 0.00 21.9 157.1 0
Throckmorton 1SW 11:59 PM 79 36 57 /28 68 / 47 10.5  (S) 6.2 27 mph 330° @ 0600 AM 2.3 or 0.09 0.00 7.9 57.5 0
Truscott 2SE 11:59 PM 79 36 57 /28 68 / 47 14.4  (S) 10.9 30 mph 329° @ 0351 AM 3.3 or 0.13 0.00 13.9 103.2 0
Tulia 2ENE 11:55 PM 79 36 57 /28 68 / 47 14.9  (SW) 11.5 29.8 mph 18° @ 0900 AM 2.8 or 0.11 0.00 17.8 134.4 0
Turkey 2WSW 11:55 PM 79 36 57 /28 68 / 47 16.1  (SW) 12.4 33.9 mph 313° @ 0125 AM 3.6 or 0.14 0.00 16.6 125.2 5
Umbarger 3NNE 11:59 PM 79 36 57 /28 68 / 47 15.3  (N) 11.5 33.7 mph 31° @ 0930 AM 2.3 or 0.09 0.00 20.5 156.3 0
Van Horn 3ENE 11:59 PM 79 36 57 /28 68 / 47 8.3  (SW) 5.5 23.9 mph 210° @ 0316 PM 3 or 0.12 0.00 22.3 149 0
Vega 4E 11:59 PM 79 36 57 /28 68 / 47 16.1  (NE) 12.1 39.5 mph 21° @ 1207 AM 2.5 or 0.1 0.00 22.4 172.1 1
Vigo Park 11:59 PM 79 36 57 /28 68 / 47 14.3  (SW) 11 29 mph 8° @ 0217 AM 2.5 or 0.1 0.00 18.7 141.3 0
Wall 2E 11:59 PM 79 36 57 /28 68 / 47 9.9  (SE) 7.5 23.8 mph 18° @ 0404 PM 2 or 0.08 0.00 9.4 64.7 0
Weinert 2NNE 11:59 PM 79 36 57 /28 68 / 47 14.3  (SW) 11 29.4 mph 352° @ 0823 AM 3 or 0.12 0.00 10.4 76.6 0
Welch 11:59 PM 79 36 57 /28 68 / 47 12.7  (SW) 9.2 32.5 mph 50° @ 1111 PM 3 or 0.12 0.00 18.8 134.1 0
Wellington 6SE 11:59 PM 79 36 57 /28 68 / 47 18.7  (S) 14.2 37.3 mph 21° @ 1217 PM 3.6 or 0.14 0.00 18.9 145 7
White River Lake 6NW 11:59 PM 79 36 57 /28 68 / 47 16.7  (SW) 11.9 38.4 mph 6° @ 0619 AM 3.6 or 0.14 0.00 17.8 129.9 1
Wolfforth 6SSW 11:59 PM 79 36 57 /28 68 / 47 16.9  (W) 13 35.1 mph 39° @ 1140 PM 3.6 or 0.14 0.00 19.5 141.2 1

WestTexas Mesonet Home    Site Map/Menu  National Weather Service Lubbock   Soil Data   Latest Observation Page   Previous  Date   Next Last